Acmar, Alabama
Current Conditions -  °F | °C
As of 1:53 AM on Wednesday 26 Nov 2014 (Local Time) from KBHM Reporting Station
Clear Clear  
Wind Chill: 36°   Ceiling: Unl
Heat Index: 41°   Visibility: 10mi
Dew Point: 28°   Wind: 8mph
Humidity: 60%   Direction: 300°WNW
Pressure: 30.1"   Gusts: NA
Location:  33.6013°N, 86.5003°W
Report Text: KBHM 260753Z 30007KT 10SM CLR 05/M02 A3010 RMK AO2 SLP193 T00501022
Loading
Personal Weather Stations






























Interactive Weather Map New forecast layout! Learn more

10-Day Weather Forecast

Advertisements
Track Severe Weather on mobile